sensor_id;sensor_type;location;lat;lon;timestamp;pressure;altitude;pressure_sealevel;temperature;humidity
59194;BME280;44967;48.598;15.650;2023-03-04T00:01:50;98511.47;;;0.05;70.10
59194;BME280;44967;48.598;15.650;2023-03-04T00:04:16;98508.16;;;0.14;69.18
59194;BME280;44967;48.598;15.650;2023-03-04T00:06:42;98509.63;;;-0.04;69.56
59194;BME280;44967;48.598;15.650;2023-03-04T00:09:08;98504.47;;;-0.02;69.83
59194;BME280;44967;48.598;15.650;2023-03-04T00:11:34;98498.38;;;-0.03;69.95
59194;BME280;44967;48.598;15.650;2023-03-04T00:14:00;98502.78;;;0.00;70.01
59194;BME280;44967;48.598;15.650;2023-03-04T00:16:25;98508.72;;;-0.06;68.86
59194;BME280;44967;48.598;15.650;2023-03-04T00:18:55;98507.97;;;0.02;69.45
59194;BME280;44967;48.598;15.650;2023-03-04T00:21:21;98507.19;;;0.09;69.16
59194;BME280;44967;48.598;15.650;2023-03-04T00:23:47;98510.66;;;0.08;69.59
59194;BME280;44967;48.598;15.650;2023-03-04T00:26:13;98506.31;;;0.08;69.70
59194;BME280;44967;48.598;15.650;2023-03-04T00:28:40;98498.34;;;-0.06;69.24
59194;BME280;44967;48.598;15.650;2023-03-04T00:31:06;98503.47;;;-0.10;69.07
59194;BME280;44967;48.598;15.650;2023-03-04T00:33:32;98500.84;;;-0.12;69.19
59194;BME280;44967;48.598;15.650;2023-03-04T00:35:58;98496.63;;;-0.05;68.45
59194;BME280;44967;48.598;15.650;2023-03-04T00:38:23;98503.63;;;-0.01;68.82
59194;BME280;44967;48.598;15.650;2023-03-04T00:40:49;98496.63;;;-0.04;69.38
59194;BME280;44967;48.598;15.650;2023-03-04T00:43:15;98491.31;;;-0.11;68.69
59194;BME280;44967;48.598;15.650;2023-03-04T00:45:40;98488.31;;;-0.38;71.00
59194;BME280;44967;48.598;15.650;2023-03-04T00:48:06;98488.44;;;-0.31;70.38
59194;BME280;44967;48.598;15.650;2023-03-04T00:50:32;98489.44;;;-0.23;70.63
59194;BME280;44967;48.598;15.650;2023-03-04T00:52:58;98491.25;;;-0.16;70.04
59194;BME280;44967;48.598;15.650;2023-03-04T00:55:24;98484.22;;;-0.23;70.13
59194;BME280;44967;48.598;15.650;2023-03-04T00:57:50;98486.03;;;-0.19;70.35
59194;BME280;44967;48.598;15.650;2023-03-04T01:00:16;98482.44;;;-0.27;69.95
59194;BME280;44967;48.598;15.650;2023-03-04T01:02:41;98475.50;;;-0.29;70.61
59194;BME280;44967;48.598;15.650;2023-03-04T01:05:08;98477.97;;;-0.37;70.62
59194;BME280;44967;48.598;15.650;2023-03-04T01:07:33;98473.63;;;-0.38;70.80
59194;BME280;44967;48.598;15.650;2023-03-04T01:09:59;98476.25;;;-0.35;70.83
59194;BME280;44967;48.598;15.650;2023-03-04T01:12:25;98478.78;;;-0.41;70.80
59194;BME280;44967;48.598;15.650;2023-03-04T01:14:50;98471.06;;;-0.36;71.08
59194;BME280;44967;48.598;15.650;2023-03-04T01:17:16;98464.97;;;-0.40;70.76
59194;BME280;44967;48.598;15.650;2023-03-04T01:19:42;98470.88;;;-0.47;70.75
59194;BME280;44967;48.598;15.650;2023-03-04T01:22:08;98460.50;;;-0.47;71.13
59194;BME280;44967;48.598;15.650;2023-03-04T01:24:35;98461.25;;;-0.54;71.51
59194;BME280;44967;48.598;15.650;2023-03-04T01:27:01;98456.06;;;-0.56;71.40
59194;BME280;44967;48.598;15.650;2023-03-04T01:29:26;98457.38;;;-0.80;71.75
59194;BME280;44967;48.598;15.650;2023-03-04T01:31:52;98463.31;;;-0.87;72.30
59194;BME280;44967;48.598;15.650;2023-03-04T01:34:17;98455.81;;;-0.69;72.14
59194;BME280;44967;48.598;15.650;2023-03-04T01:36:43;98460.22;;;-0.65;71.76
59194;BME280;44967;48.598;15.650;2023-03-04T01:39:09;98452.28;;;-0.74;71.51
59194;BME280;44967;48.598;15.650;2023-03-04T01:41:34;98454.75;;;-0.82;71.79
59194;BME280;44967;48.598;15.650;2023-03-04T01:44:00;98446.97;;;-0.83;72.10
59194;BME280;44967;48.598;15.650;2023-03-04T01:46:28;98444.41;;;-0.80;71.70
59194;BME280;44967;48.598;15.650;2023-03-04T01:48:55;98439.31;;;-0.76;71.75
59194;BME280;44967;48.598;15.650;2023-03-04T01:51:21;98439.31;;;-0.74;71.72
59194;BME280;44967;48.598;15.650;2023-03-04T01:53:48;98441.09;;;-0.70;71.65
59194;BME280;44967;48.598;15.650;2023-03-04T01:56:28;98433.31;;;-0.72;71.58
59194;BME280;44967;48.598;15.650;2023-03-04T01:59:16;98435.00;;;-0.75;71.60
59194;BME280;44967;48.598;15.650;2023-03-04T02:01:50;98433.00;;;-0.91;72.24
59194;BME280;44967;48.598;15.650;2023-03-04T02:04:17;98426.13;;;-0.86;72.42
59194;BME280;44967;48.598;15.650;2023-03-04T02:06:45;98426.97;;;-0.89;72.40
59194;BME280;44967;48.598;15.650;2023-03-04T02:09:12;98426.00;;;-0.94;72.33
59194;BME280;44967;48.598;15.650;2023-03-04T02:11:39;98422.50;;;-0.98;72.16
59194;BME280;44967;48.598;15.650;2023-03-04T02:14:05;98414.09;;;-0.84;72.00
59194;BME280;44967;48.598;15.650;2023-03-04T02:16:32;98414.13;;;-0.81;72.22
59194;BME280;44967;48.598;15.650;2023-03-04T02:18:57;98405.47;;;-0.83;71.87
59194;BME280;44967;48.598;15.650;2023-03-04T02:21:29;98406.34;;;-0.81;70.95
59194;BME280;44967;48.598;15.650;2023-03-04T02:26:26;98400.03;;;-0.97;72.17
59194;BME280;44967;48.598;15.650;2023-03-04T02:28:53;98398.28;;;-0.98;72.33
59194;BME280;44967;48.598;15.650;2023-03-04T02:31:42;98390.50;;;-1.00;72.37
59194;BME280;44967;48.598;15.650;2023-03-04T02:34:12;98385.22;;;-1.03;72.50
59194;BME280;44967;48.598;15.650;2023-03-04T02:36:39;98383.59;;;-0.99;72.44
59194;BME280;44967;48.598;15.650;2023-03-04T02:39:19;98381.03;;;-0.95;71.88
59194;BME280;44967;48.598;15.650;2023-03-04T02:41:47;98371.97;;;-1.21;72.33
59194;BME280;44967;48.598;15.650;2023-03-04T02:44:19;98374.69;;;-1.15;72.77
59194;BME280;44967;48.598;15.650;2023-03-04T02:46:45;98367.84;;;-1.11;72.24
59194;BME280;44967;48.598;15.650;2023-03-04T02:49:12;98364.16;;;-1.24;72.70
59194;BME280;44967;48.598;15.650;2023-03-04T02:51:38;98365.91;;;-1.21;73.01
59194;BME280;44967;48.598;15.650;2023-03-04T02:54:04;98360.78;;;-1.18;73.26
59194;BME280;44967;48.598;15.650;2023-03-04T02:56:38;98357.22;;;-1.25;73.20
59194;BME280;44967;48.598;15.650;2023-03-04T02:59:08;98353.78;;;-1.22;73.31
59194;BME280;44967;48.598;15.650;2023-03-04T03:01:34;98351.28;;;-1.18;72.78
59194;BME280;44967;48.598;15.650;2023-03-04T03:04:00;98357.22;;;-1.25;73.18
59194;BME280;44967;48.598;15.650;2023-03-04T03:06:26;98352.94;;;-1.23;72.94
59194;BME280;44967;48.598;15.650;2023-03-04T03:08:51;98348.69;;;-1.18;72.77
59194;BME280;44967;48.598;15.650;2023-03-04T03:11:17;98345.19;;;-1.23;72.84
59194;BME280;44967;48.598;15.650;2023-03-04T03:13:42;98340.78;;;-1.27;72.47
59194;BME280;44967;48.598;15.650;2023-03-04T03:16:08;98346.94;;;-1.20;72.76
59194;BME280;44967;48.598;15.650;2023-03-04T03:18:33;98335.59;;;-1.25;72.50
59194;BME280;44967;48.598;15.650;2023-03-04T03:20:59;98338.25;;;-1.22;73.29
59194;BME280;44967;48.598;15.650;2023-03-04T03:23:25;98332.88;;;-1.34;72.83
59194;BME280;44967;48.598;15.650;2023-03-04T03:25:50;98331.25;;;-1.28;72.95
59194;BME280;44967;48.598;15.650;2023-03-04T03:28:16;98326.88;;;-1.32;73.48
59194;BME280;44967;48.598;15.650;2023-03-04T03:30:42;98322.53;;;-1.33;72.98
59194;BME280;44967;48.598;15.650;2023-03-04T03:33:08;98326.03;;;-1.31;72.49
59194;BME280;44967;48.598;15.650;2023-03-04T03:35:33;98318.19;;;-1.34;73.18
59194;BME280;44967;48.598;15.650;2023-03-04T03:37:59;98307.81;;;-1.35;73.09
59194;BME280;44967;48.598;15.650;2023-03-04T03:40:25;98307.78;;;-1.37;73.11
59194;BME280;44967;48.598;15.650;2023-03-04T03:42:50;98309.44;;;-1.40;73.50
59194;BME280;44967;48.598;15.650;2023-03-04T03:45:16;98305.97;;;-1.41;72.78
59194;BME280;44967;48.598;15.650;2023-03-04T03:47:42;98306.81;;;-1.42;72.85
59194;BME280;44967;48.598;15.650;2023-03-04T03:50:08;98314.56;;;-1.45;73.09
59194;BME280;44967;48.598;15.650;2023-03-04T03:52:34;98311.91;;;-1.48;73.65
59194;BME280;44967;48.598;15.650;2023-03-04T03:55:00;98293.69;;;-1.54;73.36
59194;BME280;44967;48.598;15.650;2023-03-04T03:57:27;98293.63;;;-1.57;73.40
59194;BME280;44967;48.598;15.650;2023-03-04T03:59:53;98286.88;;;-1.46;73.46
59194;BME280;44967;48.598;15.650;2023-03-04T04:02:18;98294.53;;;-1.55;72.96
59194;BME280;44967;48.598;15.650;2023-03-04T04:04:44;98290.28;;;-1.50;73.33
59194;BME280;44967;48.598;15.650;2023-03-04T04:07:09;98291.22;;;-1.45;72.94
59194;BME280;44967;48.598;15.650;2023-03-04T04:09:35;98290.22;;;-1.53;72.95
59194;BME280;44967;48.598;15.650;2023-03-04T04:12:04;98290.97;;;-1.60;72.91
59194;BME280;44967;48.598;15.650;2023-03-04T04:14:29;98287.47;;;-1.64;73.80
59194;BME280;44967;48.598;15.650;2023-03-04T04:16:55;98283.16;;;-1.63;72.98
59194;BME280;44967;48.598;15.650;2023-03-04T04:19:21;98283.25;;;-1.59;73.23
59194;BME280;44967;48.598;15.650;2023-03-04T04:21:47;98285.84;;;-1.57;73.54
59194;BME280;44967;48.598;15.650;2023-03-04T04:24:13;98280.56;;;-1.63;73.38
59194;BME280;44967;48.598;15.650;2023-03-04T04:26:39;98283.13;;;-1.66;73.39
59194;BME280;44967;48.598;15.650;2023-03-04T04:29:05;98284.00;;;-1.64;72.52
59194;BME280;44967;48.598;15.650;2023-03-04T04:31:31;98275.41;;;-1.62;72.81
59194;BME280;44967;48.598;15.650;2023-03-04T04:33:57;98276.94;;;-1.73;72.94
59194;BME280;44967;48.598;15.650;2023-03-04T04:36:22;98272.56;;;-1.77;73.45
59194;BME280;44967;48.598;15.650;2023-03-04T04:38:48;98283.78;;;-1.76;73.30
59194;BME280;44967;48.598;15.650;2023-03-04T04:41:23;98281.09;;;-1.81;73.32
59194;BME280;44967;48.598;15.650;2023-03-04T04:43:49;98274.22;;;-1.82;73.68
59194;BME280;44967;48.598;15.650;2023-03-04T04:46:15;98264.69;;;-1.83;73.03
59194;BME280;44967;48.598;15.650;2023-03-04T04:48:42;98270.63;;;-1.88;73.02
59194;BME280;44967;48.598;15.650;2023-03-04T04:51:08;98274.81;;;-1.95;73.84
59194;BME280;44967;48.598;15.650;2023-03-04T04:53:33;98274.78;;;-1.98;73.99
59194;BME280;44967;48.598;15.650;2023-03-04T04:55:59;98269.59;;;-1.97;73.78
59194;BME280;44967;48.598;15.650;2023-03-04T04:58:25;98272.06;;;-2.06;73.74
59194;BME280;44967;48.598;15.650;2023-03-04T05:00:51;98271.19;;;-2.06;74.14
59194;BME280;44967;48.598;15.650;2023-03-04T05:03:16;98266.16;;;-1.97;73.88
59194;BME280;44967;48.598;15.650;2023-03-04T05:05:42;98274.78;;;-1.98;73.75
59194;BME280;44967;48.598;15.650;2023-03-04T05:08:07;98269.47;;;-2.06;73.90
59194;BME280;44967;48.598;15.650;2023-03-04T05:10:33;98266.84;;;-2.07;74.20
59194;BME280;44967;48.598;15.650;2023-03-04T05:12:59;98267.56;;;-2.14;73.69
59194;BME280;44967;48.598;15.650;2023-03-04T05:15:25;98272.72;;;-2.16;74.92
59194;BME280;44967;48.598;15.650;2023-03-04T05:17:51;98268.31;;;-2.20;74.78
59194;BME280;44967;48.598;15.650;2023-03-04T05:20:16;98267.38;;;-2.23;74.42
59194;BME280;44967;48.598;15.650;2023-03-04T05:22:42;98269.97;;;-2.23;74.60
59194;BME280;44967;48.598;15.650;2023-03-04T05:25:08;98265.72;;;-2.20;74.70
59194;BME280;44967;48.598;15.650;2023-03-04T05:27:34;98259.03;;;-2.10;74.75
59194;BME280;44967;48.598;15.650;2023-03-04T05:29:59;98258.09;;;-2.14;74.41
59194;BME280;44967;48.598;15.650;2023-03-04T05:32:25;98254.59;;;-2.16;73.83
59194;BME280;44967;48.598;15.650;2023-03-04T05:34:51;98257.09;;;-2.22;74.22
59194;BME280;44967;48.598;15.650;2023-03-04T05:37:17;98254.59;;;-2.17;74.49
59194;BME280;44967;48.598;15.650;2023-03-04T05:39:43;98258.16;;;-2.09;73.97
59194;BME280;44967;48.598;15.650;2023-03-04T05:42:09;98257.19;;;-2.16;74.13
59194;BME280;44967;48.598;15.650;2023-03-04T05:44:34;98260.59;;;-2.18;74.10
59194;BME280;44967;48.598;15.650;2023-03-04T05:47:00;98252.00;;;-2.16;74.24
59194;BME280;44967;48.598;15.650;2023-03-04T05:49:26;98258.84;;;-2.19;73.79
59194;BME280;44967;48.598;15.650;2023-03-04T05:51:51;98260.56;;;-2.20;74.03
59194;BME280;44967;48.598;15.650;2023-03-04T05:54:17;98262.34;;;-2.16;72.79
59194;BME280;44967;48.598;15.650;2023-03-04T05:56:43;98260.59;;;-2.18;72.27
59194;BME280;44967;48.598;15.650;2023-03-04T05:59:09;98259.09;;;-2.06;72.62
59194;BME280;44967;48.598;15.650;2023-03-04T06:01:35;98260.00;;;-2.04;73.14
59194;BME280;44967;48.598;15.650;2023-03-04T06:04:01;98253.91;;;-2.07;73.52
59194;BME280;44967;48.598;15.650;2023-03-04T06:06:27;98255.66;;;-2.05;73.76
59194;BME280;44967;48.598;15.650;2023-03-04T06:08:53;98262.72;;;-1.96;73.25
59194;BME280;44967;48.598;15.650;2023-03-04T06:11:18;98254.81;;;-2.04;74.37
59194;BME280;44967;48.598;15.650;2023-03-04T06:13:44;98261.84;;;-1.97;74.15
59194;BME280;44967;48.598;15.650;2023-03-04T06:16:09;98260.22;;;-1.92;73.79
59194;BME280;44967;48.598;15.650;2023-03-04T06:18:35;98259.47;;;-1.86;73.96
59194;BME280;44967;48.598;15.650;2023-03-04T06:21:01;98263.06;;;-1.78;73.93
59194;BME280;44967;48.598;15.650;2023-03-04T06:23:28;98265.81;;;-1.67;73.68
59194;BME280;44967;48.598;15.650;2023-03-04T06:25:56;98258.06;;;-1.66;73.68
59194;BME280;44967;48.598;15.650;2023-03-04T06:28:22;98260.81;;;-1.58;73.12
59194;BME280;44967;48.598;15.650;2023-03-04T06:30:52;98253.91;;;-1.56;73.16
59194;BME280;44967;48.598;15.650;2023-03-04T06:33:19;98258.19;;;-1.60;73.39
59194;BME280;44967;48.598;15.650;2023-03-04T06:35:44;98255.75;;;-1.49;73.91
59194;BME280;44967;48.598;15.650;2023-03-04T06:38:10;98250.66;;;-1.45;73.44
59194;BME280;44967;48.598;15.650;2023-03-04T06:40:36;98248.06;;;-1.45;73.04
59194;BME280;44967;48.598;15.650;2023-03-04T06:43:02;98257.69;;;-1.36;72.87
59194;BME280;44967;48.598;15.650;2023-03-04T06:45:27;98259.56;;;-1.26;73.56
59194;BME280;44967;48.598;15.650;2023-03-04T06:47:53;98253.75;;;-1.11;74.04
59194;BME280;44967;48.598;15.650;2023-03-04T06:50:19;98249.59;;;-0.99;74.03
59194;BME280;44967;48.598;15.650;2023-03-04T06:52:44;98251.44;;;-0.91;73.63
59194;BME280;44967;48.598;15.650;2023-03-04T06:55:10;98252.31;;;-0.89;73.57
59194;BME280;44967;48.598;15.650;2023-03-04T06:57:37;98252.50;;;-0.77;73.54
59194;BME280;44967;48.598;15.650;2023-03-04T07:00:04;98254.31;;;-0.72;73.21
59194;BME280;44967;48.598;15.650;2023-03-04T07:02:30;98256.81;;;-0.79;73.34
59194;BME280;44967;48.598;15.650;2023-03-04T07:04:55;98250.00;;;-0.71;73.07
59194;BME280;44967;48.598;15.650;2023-03-04T07:07:21;98262.28;;;-0.57;72.48
59194;BME280;44967;48.598;15.650;2023-03-04T07:09:47;98252.81;;;-0.53;72.63
59194;BME280;44967;48.598;15.650;2023-03-04T07:12:12;98246.88;;;-0.43;72.90
59194;BME280;44967;48.598;15.650;2023-03-04T07:14:38;98252.19;;;-0.31;71.99
59194;BME280;44967;48.598;15.650;2023-03-04T07:17:04;98254.09;;;-0.18;72.62
59194;BME280;44967;48.598;15.650;2023-03-04T07:19:29;98250.78;;;-0.05;72.13
59194;BME280;44967;48.598;15.650;2023-03-04T07:21:55;98251.72;;;0.04;71.82
59194;BME280;44967;48.598;15.650;2023-03-04T07:24:20;98254.38;;;0.10;71.94
59194;BME280;44967;48.598;15.650;2023-03-04T07:26:46;98254.47;;;0.19;71.42
59194;BME280;44967;48.598;15.650;2023-03-04T07:29:12;98259.72;;;0.28;71.34
59194;BME280;44967;48.598;15.650;2023-03-04T07:31:38;98265.00;;;0.34;71.52
59194;BME280;44967;48.598;15.650;2023-03-04T07:34:07;98264.22;;;0.44;71.05
59194;BME280;44967;48.598;15.650;2023-03-04T07:36:34;98272.06;;;0.52;70.80
59194;BME280;44967;48.598;15.650;2023-03-04T07:39:02;98279.06;;;0.54;70.93
59194;BME280;44967;48.598;15.650;2023-03-04T07:41:28;98284.31;;;0.65;71.04
59194;BME280;44967;48.598;15.650;2023-03-04T07:43:57;98278.38;;;0.75;70.52
59194;BME280;44967;48.598;15.650;2023-03-04T07:46:24;98274.94;;;0.79;71.10
59194;BME280;44967;48.598;15.650;2023-03-04T07:48:50;98283.63;;;0.85;70.77
59194;BME280;44967;48.598;15.650;2023-03-04T07:51:18;98281.03;;;0.88;70.33
59194;BME280;44967;48.598;15.650;2023-03-04T07:53:47;98282.00;;;0.98;70.04
59194;BME280;44967;48.598;15.650;2023-03-04T07:56:15;98279.50;;;1.13;71.64
59194;BME280;44967;48.598;15.650;2023-03-04T07:58:41;98281.22;;;1.16;70.64
59194;BME280;44967;48.598;15.650;2023-03-04T08:01:09;98279.53;;;1.24;71.84
59194;BME280;44967;48.598;15.650;2023-03-04T08:03:35;98285.72;;;1.41;71.54
59194;BME280;44967;48.598;15.650;2023-03-04T08:06:04;98278.84;;;1.52;71.14
59194;BME280;44967;48.598;15.650;2023-03-04T08:08:29;98286.75;;;1.73;72.65
59194;BME280;44967;48.598;15.650;2023-03-04T08:10:55;98289.41;;;1.87;71.51
59194;BME280;44967;48.598;15.650;2023-03-04T08:13:21;98290.34;;;2.07;71.50
59194;BME280;44967;48.598;15.650;2023-03-04T08:15:47;98296.47;;;2.26;71.42
59194;BME280;44967;48.598;15.650;2023-03-04T08:18:12;98290.41;;;2.45;71.40
59194;BME280;44967;48.598;15.650;2023-03-04T08:20:41;98289.56;;;2.51;70.51
59194;BME280;44967;48.598;15.650;2023-03-04T08:23:09;98283.47;;;2.59;70.65
59194;BME280;44967;48.598;15.650;2023-03-04T08:25:38;98287.81;;;2.66;70.91
59194;BME280;44967;48.598;15.650;2023-03-04T08:28:05;98285.22;;;2.74;70.00
59194;BME280;44967;48.598;15.650;2023-03-04T08:30:31;98293.88;;;3.21;73.57
59194;BME280;44967;48.598;15.650;2023-03-04T08:32:57;98283.38;;;3.59;73.35
59194;BME280;44967;48.598;15.650;2023-03-04T08:35:23;98284.97;;;3.88;72.61
59194;BME280;44967;48.598;15.650;2023-03-04T08:37:48;98273.53;;;4.13;71.09
59194;BME280;44967;48.598;15.650;2023-03-04T08:40:14;98273.31;;;4.49;70.56
59194;BME280;44967;48.598;15.650;2023-03-04T08:42:40;98281.88;;;4.71;69.17
59194;BME280;44967;48.598;15.650;2023-03-04T08:45:07;98272.16;;;4.87;67.47
59194;BME280;44967;48.598;15.650;2023-03-04T08:47:33;98274.66;;;5.00;66.92
59194;BME280;44967;48.598;15.650;2023-03-04T08:49:59;98275.44;;;5.13;64.86
59194;BME280;44967;48.598;15.650;2023-03-04T08:52:25;98269.25;;;5.18;65.35
59194;BME280;44967;48.598;15.650;2023-03-04T08:54:52;98273.53;;;5.29;63.13
59194;BME280;44967;48.598;15.650;2023-03-04T08:57:18;98262.81;;;5.50;64.14
59194;BME280;44967;48.598;15.650;2023-03-04T08:59:44;98265.03;;;5.88;63.80
59194;BME280;44967;48.598;15.650;2023-03-04T09:02:10;98265.91;;;5.84;60.47
59194;BME280;44967;48.598;15.650;2023-03-04T09:04:35;98261.22;;;6.11;56.52
59194;BME280;44967;48.598;15.650;2023-03-04T09:07:01;98253.84;;;6.38;49.35
59194;BME280;44967;48.598;15.650;2023-03-04T09:09:27;98261.41;;;6.59;47.69
59194;BME280;44967;48.598;15.650;2023-03-04T09:11:53;98262.72;;;6.87;46.96
59194;BME280;44967;48.598;15.650;2023-03-04T09:14:19;98255.53;;;6.97;47.53
59194;BME280;44967;48.598;15.650;2023-03-04T09:16:45;98255.06;;;7.24;44.33
59194;BME280;44967;48.598;15.650;2023-03-04T09:19:10;98249.72;;;7.27;43.72
59194;BME280;44967;48.598;15.650;2023-03-04T09:21:36;98247.97;;;7.29;43.31
59194;BME280;44967;48.598;15.650;2023-03-04T09:24:02;98238.56;;;7.16;43.68
59194;BME280;44967;48.598;15.650;2023-03-04T09:26:28;98244.44;;;7.30;43.23
59194;BME280;44967;48.598;15.650;2023-03-04T09:28:57;98243.31;;;7.43;42.35
59194;BME280;44967;48.598;15.650;2023-03-04T09:31:24;98252.91;;;7.46;41.82
59194;BME280;44967;48.598;15.650;2023-03-04T09:33:51;98249.41;;;7.45;40.82
59194;BME280;44967;48.598;15.650;2023-03-04T09:36:16;98249.34;;;7.48;40.19
59194;BME280;44967;48.598;15.650;2023-03-04T09:38:42;98248.94;;;7.70;39.64
59194;BME280;44967;48.598;15.650;2023-03-04T09:41:21;98247.19;;;7.70;37.69
59194;BME280;44967;48.598;15.650;2023-03-04T09:43:49;98251.53;;;7.71;39.13
59194;BME280;44967;48.598;15.650;2023-03-04T09:46:26;98246.88;;;7.84;39.25
59194;BME280;44967;48.598;15.650;2023-03-04T09:48:54;98242.56;;;7.81;38.35
59194;BME280;44967;48.598;15.650;2023-03-04T09:56:28;98234.03;;;8.10;38.38
59194;BME280;44967;48.598;15.650;2023-03-04T09:58:56;98230.53;;;8.11;39.14
59194;BME280;44967;48.598;15.650;2023-03-04T10:01:33;98229.34;;;8.24;40.16
59194;BME280;44967;48.598;15.650;2023-03-04T10:04:13;98227.22;;;8.41;38.92
59194;BME280;44967;48.598;15.650;2023-03-04T10:06:42;98225.53;;;8.40;37.48
59194;BME280;44967;48.598;15.650;2023-03-04T10:09:24;98219.31;;;8.43;39.25
59194;BME280;44967;48.598;15.650;2023-03-04T10:11:56;98212.13;;;8.49;39.49
59194;BME280;44967;48.598;15.650;2023-03-04T10:14:59;98213.44;;;8.69;39.88
59194;BME280;44967;48.598;15.650;2023-03-04T10:17:34;98204.97;;;8.55;38.95
59194;BME280;44967;48.598;15.650;2023-03-04T10:20:11;98214.25;;;8.71;39.66
59194;BME280;44967;48.598;15.650;2023-03-04T10:22:52;98199.63;;;8.58;36.91
59194;BME280;44967;48.598;15.650;2023-03-04T10:25:29;98200.22;;;8.70;38.14
59194;BME280;44967;48.598;15.650;2023-03-04T10:27:58;98191.81;;;8.90;37.27
59194;BME280;44967;48.598;15.650;2023-03-04T10:33:32;98179.47;;;8.92;37.27
59194;BME280;44967;48.598;15.650;2023-03-04T10:38:34;98175.13;;;9.23;36.38
59194;BME280;44967;48.598;15.650;2023-03-04T10:41:04;98171.41;;;9.30;37.14
59194;BME280;44967;48.598;15.650;2023-03-04T10:43:38;98171.16;;;9.39;36.59
59194;BME280;44967;48.598;15.650;2023-03-04T10:46:04;98176.00;;;9.55;36.98
59194;BME280;44967;48.598;15.650;2023-03-04T10:48:30;98162.69;;;9.59;36.30
59194;BME280;44967;48.598;15.650;2023-03-04T10:51:19;98170.09;;;9.76;34.70
59194;BME280;44967;48.598;15.650;2023-03-04T10:53:46;98167.63;;;9.71;34.47
59194;BME280;44967;48.598;15.650;2023-03-04T10:56:37;98161.31;;;10.05;35.22
59194;BME280;44967;48.598;15.650;2023-03-04T11:02:10;98151.31;;;10.44;34.22
59194;BME280;44967;48.598;15.650;2023-03-04T11:04:39;98141.38;;;10.78;34.24
59194;BME280;44967;48.598;15.650;2023-03-04T11:07:09;98136.38;;;11.20;34.04
59194;BME280;44967;48.598;15.650;2023-03-04T11:09:35;98154.84;;;11.21;34.62
59194;BME280;44967;48.598;15.650;2023-03-04T11:12:05;98146.28;;;10.88;33.11
59194;BME280;44967;48.598;15.650;2023-03-04T11:14:37;98135.50;;;11.19;35.24
59194;BME280;44967;48.598;15.650;2023-03-04T11:17:28;98138.00;;;11.24;34.82
59194;BME280;44967;48.598;15.650;2023-03-04T11:20:06;98124.56;;;10.79;33.81
59194;BME280;44967;48.598;15.650;2023-03-04T11:22:36;98123.53;;;11.09;35.99
59194;BME280;44967;48.598;15.650;2023-03-04T11:25:06;98125.03;;;11.16;35.63
59194;BME280;44967;48.598;15.650;2023-03-04T11:27:57;98115.22;;;11.20;34.67
59194;BME280;44967;48.598;15.650;2023-03-04T11:33:26;98111.06;;;10.88;35.73
59194;BME280;44967;48.598;15.650;2023-03-04T11:36:20;98119.03;;;11.11;36.85
59194;BME280;44967;48.598;15.650;2023-03-04T11:38:49;98110.25;;;11.11;36.15
59194;BME280;44967;48.598;15.650;2023-03-04T11:43:54;98101.44;;;11.35;36.05
59194;BME280;44967;48.598;15.650;2023-03-04T11:50:22;98087.75;;;10.99;35.79
59194;BME280;44967;48.598;15.650;2023-03-04T11:58:13;98080.34;;;11.33;35.63
59194;BME280;44967;48.598;15.650;2023-03-04T12:01:09;98078.47;;;11.59;35.15
59194;BME280;44967;48.598;15.650;2023-03-04T12:23:53;98051.84;;;11.17;36.25
59194;BME280;44967;48.598;15.650;2023-03-04T12:26:23;98038.94;;;11.32;38.13
59194;BME280;44967;48.598;15.650;2023-03-04T12:29:06;98040.38;;;11.18;35.75
59194;BME280;44967;48.598;15.650;2023-03-04T12:31:38;98038.22;;;11.27;36.67
59194;BME280;44967;48.598;15.650;2023-03-04T12:48:49;98026.44;;;11.36;36.08
59194;BME280;44967;48.598;15.650;2023-03-04T12:51:34;98020.16;;;11.15;36.45
59194;BME280;44967;48.598;15.650;2023-03-04T12:56:54;98014.47;;;11.49;37.05
59194;BME280;44967;48.598;15.650;2023-03-04T12:59:23;98010.78;;;11.30;34.94
59194;BME280;44967;48.598;15.650;2023-03-04T13:04:56;98010.16;;;11.23;35.98
59194;BME280;44967;48.598;15.650;2023-03-04T13:10:15;98006.75;;;11.43;37.53
59194;BME280;44967;48.598;15.650;2023-03-04T13:12:47;98010.44;;;11.39;36.71
59194;BME280;44967;48.598;15.650;2023-03-04T13:15:18;98014.25;;;11.32;35.52
59194;BME280;44967;48.598;15.650;2023-03-04T13:17:56;98002.50;;;11.39;36.87
59194;BME280;44967;48.598;15.650;2023-03-04T13:20:24;98005.66;;;11.02;35.51
59194;BME280;44967;48.598;15.650;2023-03-04T13:23:00;98018.34;;;10.94;36.94
59194;BME280;44967;48.598;15.650;2023-03-04T13:28:05;98007.16;;;10.86;36.64
59194;BME280;44967;48.598;15.650;2023-03-04T13:36:01;98013.22;;;10.65;37.02
59194;BME280;44967;48.598;15.650;2023-03-04T13:56:37;98021.22;;;10.86;37.97
59194;BME280;44967;48.598;15.650;2023-03-04T13:59:10;98012.31;;;10.66;37.61
59194;BME280;44967;48.598;15.650;2023-03-04T14:04:19;98024.13;;;10.79;39.89
59194;BME280;44967;48.598;15.650;2023-03-04T14:06:49;98008.31;;;10.54;38.63
59194;BME280;44967;48.598;15.650;2023-03-04T14:09:25;98015.63;;;10.46;38.71
59194;BME280;44967;48.598;15.650;2023-03-04T14:12:02;98006.34;;;10.34;39.03
59194;BME280;44967;48.598;15.650;2023-03-04T14:14:43;98018.88;;;10.28;39.25
59194;BME280;44967;48.598;15.650;2023-03-04T14:17:18;98010.72;;;10.08;39.58
59194;BME280;44967;48.598;15.650;2023-03-04T14:19:47;98013.53;;;10.31;40.88
59194;BME280;44967;48.598;15.650;2023-03-04T14:22:26;98021.34;;;10.34;39.89
59194;BME280;44967;48.598;15.650;2023-03-04T14:24:56;98020.59;;;10.30;40.30
59194;BME280;44967;48.598;15.650;2023-03-04T14:27:22;98019.44;;;10.11;39.31
59194;BME280;44967;48.598;15.650;2023-03-04T14:30:00;98016.97;;;10.05;40.13
59194;BME280;44967;48.598;15.650;2023-03-04T14:32:27;98022.41;;;10.01;39.93
59194;BME280;44967;48.598;15.650;2023-03-04T14:35:04;98020.31;;;9.84;41.00
59194;BME280;44967;48.598;15.650;2023-03-04T14:40:32;98028.38;;;10.07;41.04
59194;BME280;44967;48.598;15.650;2023-03-04T14:43:07;98030.53;;;9.94;40.64
59194;BME280;44967;48.598;15.650;2023-03-04T14:45:38;98030.81;;;9.85;42.06